CheckWX is a tool to help pilots better visualize weather data.  It is not intended as a substitute for an official pre-flight weather briefing.

23:45:38 UTC

CYNE TAF
Norway House Airport
Norway House, Canada
TAF CYNE 301838Z 3019/3107 14010G20KT P6SM SCT120 BKN220 RMK FCST BASED ON AUTO OBS. NXT FCST BY 310100Z

Mar-30@
19:00 UTC

Mar-30 @ 19:00 UTC

Mar-31@
07:00 UTC

Mar-31 @ 07:00 UTC

TAF CYNE 301838Z 3019/3107 14010G20KT P6SM SCT120 BKN220 RMK FCST BASED ON AUTO OBS. NXT FCST BY 310100Z
Wind
  • 140° at 10 KTS
  • {Gusting to 20 KTS
Cloud Levels
  • Scattered at 12,000' AGL
  • Broken at 22,000' AGL